createdAt,value
2018-03-22T01:18:02.307Z,19.90
2018-03-22T01:29:20.189Z,21.80
2018-03-22T01:31:47.738Z,18.10
2018-03-22T01:34:17.364Z,23.70
2018-03-22T01:36:44.896Z,20.53
2018-03-22T01:39:12.424Z,23.10
2018-03-22T01:41:39.966Z,23.83
2018-03-22T01:44:08.277Z,21.40
2018-03-22T01:46:35.863Z,22.83
2018-03-22T01:49:03.413Z,23.63
2018-03-22T01:51:31.159Z,27.23
2018-03-22T01:53:58.701Z,26.50
2018-03-22T01:56:26.654Z,24.30
2018-03-22T01:58:54.212Z,25.53
2018-03-22T02:01:22.515Z,25.87
2018-03-22T02:03:50.469Z,23.20
2018-03-22T02:06:18.021Z,21.30
2018-03-22T02:08:46.337Z,21.33
2018-03-22T02:11:13.877Z,21.53
2018-03-22T03:20:31.203Z,28.52
2018-03-22T05:24:05.920Z,46.78
2018-03-22T05:26:33.451Z,43.38
2018-03-22T05:29:00.988Z,44.40
2018-03-22T05:31:28.538Z,50.60
2018-03-22T05:33:56.091Z,47.90
2018-03-22T05:36:23.642Z,46.40
2018-03-22T05:38:51.203Z,49.08
2018-03-22T05:41:18.762Z,48.25
2018-03-22T05:43:46.332Z,44.60
2018-03-22T05:46:13.887Z,47.90
2018-03-22T05:48:41.434Z,44.58
2018-03-22T05:51:09.030Z,44.53
2018-03-22T05:53:36.574Z,46.28
2018-03-22T05:56:04.114Z,42.47
2018-03-22T05:58:31.652Z,44.90
2018-03-22T06:00:59.952Z,40.30
2018-03-22T06:03:27.578Z,39.50
2018-03-22T06:05:55.890Z,42.85
2018-03-22T06:08:23.462Z,39.95
2018-03-22T06:10:51.036Z,41.05
2018-03-22T06:13:18.584Z,37.83
2018-03-22T06:15:46.124Z,38.67
2018-03-22T06:21:27.417Z,39.38
2018-03-22T07:12:45.965Z,31.12
2018-03-22T07:21:17.202Z,31.25
2018-03-22T08:21:16.283Z,41.67
2018-03-22T09:12:44.868Z,39.80
2018-03-22T09:18:14.953Z,38.50
2018-03-22T09:20:43.361Z,39.93
2018-03-22T10:17:54.662Z,16.90
2018-03-22T11:12:13.586Z,12.20
2018-03-22T11:20:45.906Z,11.03
2018-03-22T12:21:11.897Z,16.03
2018-03-22T13:18:16.696Z,21.43
2018-03-22T14:12:47.351Z,7.03
2018-03-22T14:21:11.049Z,6.70
2018-03-22T15:24:00.231Z,19.00
2018-03-22T15:26:29.261Z,14.80
2018-03-22T15:28:56.810Z,16.33
2018-03-22T15:31:24.366Z,21.30
2018-03-22T15:33:51.905Z,16.97
2018-03-22T15:36:20.207Z,19.50
2018-03-22T15:38:47.756Z,17.27
2018-03-22T15:41:16.061Z,15.80
2018-03-22T15:43:43.649Z,13.37
2018-03-22T15:46:11.192Z,13.17
2018-03-22T15:48:38.847Z,16.33
2018-03-22T15:51:06.405Z,14.53
2018-03-22T15:53:33.965Z,15.00
2018-03-22T15:56:01.501Z,16.23
2018-03-22T15:58:29.073Z,16.00
2018-03-22T16:00:56.615Z,20.83
2018-03-22T16:03:24.933Z,18.77
2018-03-22T16:05:52.480Z,16.93
2018-03-22T16:08:20.032Z,17.63
2018-03-22T16:10:47.582Z,17.83
2018-03-22T16:13:27.613Z,25.67
2018-03-22T16:15:55.934Z,17.57
2018-03-22T16:18:30.960Z,24.13
2018-03-22T17:21:46.690Z,17.57
2018-03-22T17:24:14.261Z,16.07
2018-03-22T17:26:42.720Z,14.30
2018-03-22T17:29:10.318Z,14.43
2018-03-22T17:31:37.969Z,15.43
2018-03-22T17:34:05.565Z,14.03
2018-03-22T17:36:33.896Z,13.73
2018-03-22T17:39:01.622Z,14.40
2018-03-22T17:41:29.273Z,15.63
2018-03-22T17:43:57.579Z,16.43
2018-03-22T17:46:25.109Z,15.47
2018-03-22T17:48:53.418Z,15.23
2018-03-22T17:51:20.964Z,14.57
2018-03-22T17:53:48.515Z,14.63
2018-03-22T17:56:16.321Z,14.87
2018-03-22T17:58:43.871Z,15.33
2018-03-22T18:01:11.474Z,16.70
2018-03-22T18:03:39.036Z,18.67
2018-03-22T18:06:06.605Z,15.57
2018-03-22T18:08:34.925Z,15.13
2018-03-22T18:11:02.469Z,17.60
2018-03-22T19:13:54.584Z,13.97
2018-03-22T19:19:26.944Z,16.93
2018-03-22T19:22:15.179Z,15.73
2018-03-22T20:13:19.411Z,13.97
2018-03-22T20:15:46.996Z,15.07
2018-03-22T20:18:37.997Z,16.43
2018-03-22T20:33:06.538Z,15.50
2018-03-22T20:35:34.079Z,14.20
2018-03-22T20:38:02.396Z,14.10
2018-03-22T20:40:29.924Z,14.10
2018-03-22T20:42:58.233Z,12.43
2018-03-22T20:45:25.775Z,11.80
2018-03-22T20:47:53.319Z,13.53
2018-03-22T20:50:22.173Z,15.43
2018-03-22T20:52:49.731Z,12.87
2018-03-22T20:55:18.213Z,13.17
2018-03-22T20:57:45.762Z,13.43
2018-03-22T21:00:13.333Z,15.20
2018-03-22T21:02:40.880Z,13.73
2018-03-22T21:05:08.434Z,14.23
2018-03-22T21:07:36.038Z,15.27
2018-03-22T21:10:03.568Z,14.03
2018-03-22T21:12:31.153Z,14.73
2018-03-22T21:14:58.705Z,15.70
2018-03-22T21:17:26.286Z,13.20
2018-03-22T21:19:54.620Z,14.83
2018-03-22T21:25:16.249Z,14.13
2018-03-22T21:27:43.896Z,14.60
2018-03-22T21:30:11.477Z,13.30
2018-03-22T21:32:39.112Z,16.27
2018-03-22T21:35:06.750Z,14.50
2018-03-22T21:37:35.084Z,16.70
2018-03-22T21:40:02.652Z,15.40
2018-03-22T21:42:30.181Z,16.07
2018-03-22T21:44:57.738Z,15.80
2018-03-22T21:47:30.730Z,17.23
2018-03-22T21:49:58.493Z,16.33
2018-03-22T21:52:37.858Z,16.83
2018-03-22T21:55:06.034Z,17.47
2018-03-22T21:57:33.592Z,17.77
2018-03-22T22:00:01.124Z,16.70
2018-03-22T22:02:28.708Z,16.80
2018-03-22T22:04:56.347Z,19.37
2018-03-22T22:07:24.848Z,17.73
2018-03-22T22:09:52.403Z,17.77
2018-03-22T22:12:19.948Z,19.70
2018-03-22T22:17:40.822Z,18.50
2018-03-22T22:20:14.957Z,18.50
2018-03-22T22:23:06.797Z,18.40
2018-03-22T22:25:39.020Z,17.97
2018-03-22T22:28:06.568Z,20.27
2018-03-22T22:30:34.120Z,17.30
2018-03-22T22:33:01.678Z,18.63
2018-03-22T22:35:29.216Z,20.53
2018-03-22T22:37:56.776Z,19.00
2018-03-22T22:40:24.314Z,19.77
2018-03-22T22:42:52.684Z,19.57
2018-03-22T22:45:20.229Z,19.13
2018-03-22T22:47:47.893Z,19.73
2018-03-22T22:50:15.489Z,17.73
2018-03-22T22:52:43.803Z,18.47
2018-03-22T22:55:11.344Z,18.20
2018-03-22T22:57:38.903Z,20.83
2018-03-22T23:00:06.479Z,17.53
2018-03-22T23:02:34.010Z,17.30
2018-03-22T23:05:02.317Z,18.60
2018-03-22T23:07:29.870Z,18.80
2018-03-22T23:09:57.415Z,20.77
2018-03-22T23:12:24.959Z,18.13
2018-03-22T23:17:55.713Z,18.37
